Aviation Digital Data Service (ADDS)

Output produced by METARs form (2315 UTC 23 May 2022)
found at http://www.aviationweather.gov/metar/data/
 
KXNA 231729Z 2318/2418 09007KT P6SM -SHRA BKN025 
     TEMPO 2318/2320 4SM -TSRA BKN015CB 
     FM232200 10005KT P6SM BKN035 
     FM240600 11006KT P6SM BKN025 
     FM241200 13010KT P6SM VCSH OVC015 
     PROB30 2412/2418 4SM TSRA OVC010CB